sensor_id;sensor_type;location;lat;lon;timestamp;P1;durP1;ratioP1;P2;durP2;ratioP2
54171;SDS011;40076;52.354;4.970;2023-07-02T00:00:02;20.05;;;7.35;;
54171;SDS011;40076;52.354;4.970;2023-07-02T00:02:33;15.27;;;7.10;;
54171;SDS011;40076;52.354;4.970;2023-07-02T00:04:59;17.77;;;7.45;;
54171;SDS011;40076;52.354;4.970;2023-07-02T00:07:25;15.05;;;6.53;;
54171;SDS011;40076;52.354;4.970;2023-07-02T00:10:02;21.13;;;7.28;;
54171;SDS011;40076;52.354;4.970;2023-07-02T00:12:35;15.25;;;6.97;;
54171;SDS011;40076;52.354;4.970;2023-07-02T00:15:07;26.55;;;7.88;;
54171;SDS011;40076;52.354;4.970;2023-07-02T00:17:33;17.10;;;7.20;;
54171;SDS011;40076;52.354;4.970;2023-07-02T00:20:10;17.15;;;7.82;;
54171;SDS011;40076;52.354;4.970;2023-07-02T00:22:52;20.52;;;7.70;;
54171;SDS011;40076;52.354;4.970;2023-07-02T00:25:19;20.27;;;7.70;;
54171;SDS011;40076;52.354;4.970;2023-07-02T00:27:48;22.60;;;8.02;;
54171;SDS011;40076;52.354;4.970;2023-07-02T00:30:22;18.70;;;8.18;;
54171;SDS011;40076;52.354;4.970;2023-07-02T00:32:50;20.48;;;8.07;;
54171;SDS011;40076;52.354;4.970;2023-07-02T00:35:26;25.05;;;8.23;;
54171;SDS011;40076;52.354;4.970;2023-07-02T00:37:59;20.63;;;7.47;;
54171;SDS011;40076;52.354;4.970;2023-07-02T00:40:39;20.95;;;8.30;;
54171;SDS011;40076;52.354;4.970;2023-07-02T00:43:08;23.35;;;8.15;;
54171;SDS011;40076;52.354;4.970;2023-07-02T00:45:37;26.83;;;8.70;;
54171;SDS011;40076;52.354;4.970;2023-07-02T00:48:05;24.65;;;8.32;;
54171;SDS011;40076;52.354;4.970;2023-07-02T00:50:30;21.42;;;8.00;;
54171;SDS011;40076;52.354;4.970;2023-07-02T00:52:59;23.02;;;8.50;;
54171;SDS011;40076;52.354;4.970;2023-07-02T00:55:31;22.48;;;8.88;;
54171;SDS011;40076;52.354;4.970;2023-07-02T00:57:56;24.10;;;8.50;;
54171;SDS011;40076;52.354;4.970;2023-07-02T01:00:22;25.88;;;8.77;;
54171;SDS011;40076;52.354;4.970;2023-07-02T01:02:53;22.42;;;8.18;;
54171;SDS011;40076;52.354;4.970;2023-07-02T01:05:23;23.13;;;8.23;;
54171;SDS011;40076;52.354;4.970;2023-07-02T01:08:01;23.50;;;8.48;;
54171;SDS011;40076;52.354;4.970;2023-07-02T01:10:31;18.60;;;7.97;;
54171;SDS011;40076;52.354;4.970;2023-07-02T01:13:01;24.77;;;8.63;;
54171;SDS011;40076;52.354;4.970;2023-07-02T01:15:33;23.30;;;8.05;;
54171;SDS011;40076;52.354;4.970;2023-07-02T01:18:00;23.88;;;8.32;;
54171;SDS011;40076;52.354;4.970;2023-07-02T01:20:28;27.40;;;9.10;;
54171;SDS011;40076;52.354;4.970;2023-07-02T01:22:55;20.75;;;8.13;;
54171;SDS011;40076;52.354;4.970;2023-07-02T01:25:25;29.17;;;8.55;;
54171;SDS011;40076;52.354;4.970;2023-07-02T01:27:51;21.08;;;8.45;;
54171;SDS011;40076;52.354;4.970;2023-07-02T01:30:18;20.00;;;8.00;;
54171;SDS011;40076;52.354;4.970;2023-07-02T01:32:43;22.35;;;7.72;;
54171;SDS011;40076;52.354;4.970;2023-07-02T01:35:09;20.83;;;7.80;;
54171;SDS011;40076;52.354;4.970;2023-07-02T01:37:34;20.20;;;7.40;;
54171;SDS011;40076;52.354;4.970;2023-07-02T01:40:02;22.35;;;8.23;;
54171;SDS011;40076;52.354;4.970;2023-07-02T01:42:31;27.40;;;8.70;;
54171;SDS011;40076;52.354;4.970;2023-07-02T01:44:56;21.13;;;8.38;;
54171;SDS011;40076;52.354;4.970;2023-07-02T01:47:22;19.05;;;7.45;;
54171;SDS011;40076;52.354;4.970;2023-07-02T01:49:48;18.55;;;7.13;;
54171;SDS011;40076;52.354;4.970;2023-07-02T01:52:13;23.85;;;9.02;;
54171;SDS011;40076;52.354;4.970;2023-07-02T01:54:39;23.27;;;8.20;;
54171;SDS011;40076;52.354;4.970;2023-07-02T01:57:04;26.88;;;8.40;;
54171;SDS011;40076;52.354;4.970;2023-07-02T01:59:30;18.08;;;7.03;;
54171;SDS011;40076;52.354;4.970;2023-07-02T02:01:55;23.15;;;9.63;;
54171;SDS011;40076;52.354;4.970;2023-07-02T02:04:21;22.77;;;7.82;;
54171;SDS011;40076;52.354;4.970;2023-07-02T02:06:46;26.02;;;7.70;;
54171;SDS011;40076;52.354;4.970;2023-07-02T02:09:14;25.23;;;8.18;;
54171;SDS011;40076;52.354;4.970;2023-07-02T02:11:42;22.50;;;8.52;;
54171;SDS011;40076;52.354;4.970;2023-07-02T02:14:10;29.80;;;9.57;;
54171;SDS011;40076;52.354;4.970;2023-07-02T02:16:36;22.02;;;7.90;;
54171;SDS011;40076;52.354;4.970;2023-07-02T02:19:02;21.60;;;7.68;;
54171;SDS011;40076;52.354;4.970;2023-07-02T02:21:28;25.60;;;8.25;;
54171;SDS011;40076;52.354;4.970;2023-07-02T02:23:54;21.00;;;7.95;;
54171;SDS011;40076;52.354;4.970;2023-07-02T02:26:20;21.58;;;7.78;;
54171;SDS011;40076;52.354;4.970;2023-07-02T02:28:46;23.27;;;8.23;;
54171;SDS011;40076;52.354;4.970;2023-07-02T02:31:13;21.83;;;8.25;;
54171;SDS011;40076;52.354;4.970;2023-07-02T02:33:39;22.17;;;8.70;;
54171;SDS011;40076;52.354;4.970;2023-07-02T02:36:05;24.10;;;8.43;;
54171;SDS011;40076;52.354;4.970;2023-07-02T02:38:30;29.25;;;8.40;;
54171;SDS011;40076;52.354;4.970;2023-07-02T02:40:56;19.52;;;8.27;;
54171;SDS011;40076;52.354;4.970;2023-07-02T02:43:21;24.13;;;7.63;;
54171;SDS011;40076;52.354;4.970;2023-07-02T02:45:47;25.08;;;8.07;;
54171;SDS011;40076;52.354;4.970;2023-07-02T02:48:13;23.02;;;9.18;;
54171;SDS011;40076;52.354;4.970;2023-07-02T02:50:38;24.77;;;8.63;;
54171;SDS011;40076;52.354;4.970;2023-07-02T02:53:08;23.77;;;8.32;;
54171;SDS011;40076;52.354;4.970;2023-07-02T02:55:33;23.42;;;8.15;;
54171;SDS011;40076;52.354;4.970;2023-07-02T02:57:59;25.83;;;8.70;;
54171;SDS011;40076;52.354;4.970;2023-07-02T03:00:25;21.52;;;8.25;;
54171;SDS011;40076;52.354;4.970;2023-07-02T03:02:50;24.10;;;9.40;;
54171;SDS011;40076;52.354;4.970;2023-07-02T03:05:15;23.77;;;8.82;;
54171;SDS011;40076;52.354;4.970;2023-07-02T03:07:41;25.55;;;8.57;;
54171;SDS011;40076;52.354;4.970;2023-07-02T03:10:07;27.55;;;8.70;;
54171;SDS011;40076;52.354;4.970;2023-07-02T03:12:33;22.38;;;9.85;;
54171;SDS011;40076;52.354;4.970;2023-07-02T03:14:59;20.40;;;7.82;;
54171;SDS011;40076;52.354;4.970;2023-07-02T03:17:24;25.77;;;8.55;;
54171;SDS011;40076;52.354;4.970;2023-07-02T03:19:50;22.20;;;8.25;;
54171;SDS011;40076;52.354;4.970;2023-07-02T03:22:15;25.90;;;8.88;;
54171;SDS011;40076;52.354;4.970;2023-07-02T03:24:41;27.35;;;8.52;;
54171;SDS011;40076;52.354;4.970;2023-07-02T03:27:06;21.60;;;8.32;;
54171;SDS011;40076;52.354;4.970;2023-07-02T03:29:33;19.95;;;8.32;;
54171;SDS011;40076;52.354;4.970;2023-07-02T03:32:00;28.08;;;9.23;;
54171;SDS011;40076;52.354;4.970;2023-07-02T03:34:27;23.73;;;8.32;;
54171;SDS011;40076;52.354;4.970;2023-07-02T03:36:53;23.23;;;7.75;;
54171;SDS011;40076;52.354;4.970;2023-07-02T03:39:21;21.52;;;8.02;;
54171;SDS011;40076;52.354;4.970;2023-07-02T03:41:46;22.63;;;8.25;;
54171;SDS011;40076;52.354;4.970;2023-07-02T03:44:12;23.40;;;8.50;;
54171;SDS011;40076;52.354;4.970;2023-07-02T03:46:37;22.83;;;8.13;;
54171;SDS011;40076;52.354;4.970;2023-07-02T03:49:05;23.88;;;8.07;;
54171;SDS011;40076;52.354;4.970;2023-07-02T03:51:31;35.47;;;9.05;;
54171;SDS011;40076;52.354;4.970;2023-07-02T03:54:00;22.42;;;8.02;;
54171;SDS011;40076;52.354;4.970;2023-07-02T03:56:25;30.25;;;8.93;;
54171;SDS011;40076;52.354;4.970;2023-07-02T03:58:51;27.27;;;8.88;;
54171;SDS011;40076;52.354;4.970;2023-07-02T04:01:17;25.13;;;8.32;;
54171;SDS011;40076;52.354;4.970;2023-07-02T04:03:49;24.90;;;7.97;;
54171;SDS011;40076;52.354;4.970;2023-07-02T04:06:16;23.20;;;8.75;;
54171;SDS011;40076;52.354;4.970;2023-07-02T04:08:42;23.98;;;8.27;;
54171;SDS011;40076;52.354;4.970;2023-07-02T04:11:09;28.48;;;8.70;;
54171;SDS011;40076;52.354;4.970;2023-07-02T04:13:35;27.50;;;8.50;;
54171;SDS011;40076;52.354;4.970;2023-07-02T04:16:00;25.60;;;8.10;;
54171;SDS011;40076;52.354;4.970;2023-07-02T04:18:26;25.23;;;8.80;;
54171;SDS011;40076;52.354;4.970;2023-07-02T04:20:51;26.38;;;8.75;;
54171;SDS011;40076;52.354;4.970;2023-07-02T04:23:19;24.70;;;8.88;;
54171;SDS011;40076;52.354;4.970;2023-07-02T04:25:45;28.20;;;9.43;;
54171;SDS011;40076;52.354;4.970;2023-07-02T04:28:10;24.27;;;8.57;;
54171;SDS011;40076;52.354;4.970;2023-07-02T04:30:35;24.50;;;8.57;;
54171;SDS011;40076;52.354;4.970;2023-07-02T04:33:01;24.75;;;8.32;;
54171;SDS011;40076;52.354;4.970;2023-07-02T04:35:26;19.77;;;7.22;;
54171;SDS011;40076;52.354;4.970;2023-07-02T04:37:52;31.65;;;8.65;;
54171;SDS011;40076;52.354;4.970;2023-07-02T04:40:17;21.55;;;8.20;;
54171;SDS011;40076;52.354;4.970;2023-07-02T04:42:43;23.15;;;7.45;;
54171;SDS011;40076;52.354;4.970;2023-07-02T04:45:22;26.67;;;8.43;;
54171;SDS011;40076;52.354;4.970;2023-07-02T04:47:49;24.60;;;8.40;;
54171;SDS011;40076;52.354;4.970;2023-07-02T04:50:15;20.92;;;7.57;;
54171;SDS011;40076;52.354;4.970;2023-07-02T04:52:41;21.17;;;7.03;;
54171;SDS011;40076;52.354;4.970;2023-07-02T04:55:06;24.85;;;8.52;;
54171;SDS011;40076;52.354;4.970;2023-07-02T04:57:32;26.40;;;7.80;;
54171;SDS011;40076;52.354;4.970;2023-07-02T04:59:58;20.75;;;6.47;;
54171;SDS011;40076;52.354;4.970;2023-07-02T05:02:31;23.95;;;7.28;;
54171;SDS011;40076;52.354;4.970;2023-07-02T05:07:21;18.48;;;7.78;;
54171;SDS011;40076;52.354;4.970;2023-07-02T05:09:47;19.83;;;7.30;;
54171;SDS011;40076;52.354;4.970;2023-07-02T05:12:14;20.25;;;7.50;;
54171;SDS011;40076;52.354;4.970;2023-07-02T05:14:40;20.40;;;7.18;;
54171;SDS011;40076;52.354;4.970;2023-07-02T05:17:05;17.02;;;6.63;;
54171;SDS011;40076;52.354;4.970;2023-07-02T05:19:31;20.92;;;7.07;;
54171;SDS011;40076;52.354;4.970;2023-07-02T05:21:56;20.13;;;7.13;;
54171;SDS011;40076;52.354;4.970;2023-07-02T05:24:22;20.45;;;7.72;;
54171;SDS011;40076;52.354;4.970;2023-07-02T05:26:47;22.85;;;7.75;;
54171;SDS011;40076;52.354;4.970;2023-07-02T05:29:13;23.30;;;7.30;;
54171;SDS011;40076;52.354;4.970;2023-07-02T05:31:39;20.45;;;6.40;;
54171;SDS011;40076;52.354;4.970;2023-07-02T05:34:04;21.05;;;6.60;;
54171;SDS011;40076;52.354;4.970;2023-07-02T05:36:30;19.40;;;6.72;;
54171;SDS011;40076;52.354;4.970;2023-07-02T05:38:55;21.80;;;7.05;;
54171;SDS011;40076;52.354;4.970;2023-07-02T05:41:21;24.15;;;7.13;;
54171;SDS011;40076;52.354;4.970;2023-07-02T05:43:46;19.52;;;6.53;;
54171;SDS011;40076;52.354;4.970;2023-07-02T05:46:12;22.17;;;6.57;;
54171;SDS011;40076;52.354;4.970;2023-07-02T05:48:39;17.77;;;6.50;;
54171;SDS011;40076;52.354;4.970;2023-07-02T05:51:05;21.92;;;6.28;;
54171;SDS011;40076;52.354;4.970;2023-07-02T05:53:30;22.33;;;6.78;;
54171;SDS011;40076;52.354;4.970;2023-07-02T05:55:56;18.95;;;6.32;;
54171;SDS011;40076;52.354;4.970;2023-07-02T05:58:21;19.27;;;5.90;;
54171;SDS011;40076;52.354;4.970;2023-07-02T06:00:46;18.83;;;5.88;;
54171;SDS011;40076;52.354;4.970;2023-07-02T06:03:15;22.85;;;7.22;;
54171;SDS011;40076;52.354;4.970;2023-07-02T06:05:45;17.73;;;6.93;;
54171;SDS011;40076;52.354;4.970;2023-07-02T06:08:17;18.63;;;6.07;;
54171;SDS011;40076;52.354;4.970;2023-07-02T06:10:45;18.23;;;6.43;;
54171;SDS011;40076;52.354;4.970;2023-07-02T06:13:11;18.17;;;6.05;;
54171;SDS011;40076;52.354;4.970;2023-07-02T06:15:37;22.38;;;6.45;;
54171;SDS011;40076;52.354;4.970;2023-07-02T06:18:02;21.20;;;6.88;;
54171;SDS011;40076;52.354;4.970;2023-07-02T06:20:28;17.77;;;6.82;;
54171;SDS011;40076;52.354;4.970;2023-07-02T06:22:53;20.98;;;6.22;;
54171;SDS011;40076;52.354;4.970;2023-07-02T06:25:19;15.65;;;6.63;;
54171;SDS011;40076;52.354;4.970;2023-07-02T06:27:44;19.50;;;5.97;;
54171;SDS011;40076;52.354;4.970;2023-07-02T06:30:10;20.25;;;5.82;;
54171;SDS011;40076;52.354;4.970;2023-07-02T06:32:36;21.98;;;7.25;;
54171;SDS011;40076;52.354;4.970;2023-07-02T06:35:02;18.45;;;6.95;;
54171;SDS011;40076;52.354;4.970;2023-07-02T06:37:28;19.63;;;6.85;;
54171;SDS011;40076;52.354;4.970;2023-07-02T06:39:53;17.67;;;5.63;;
54171;SDS011;40076;52.354;4.970;2023-07-02T06:42:20;18.58;;;5.45;;
54171;SDS011;40076;52.354;4.970;2023-07-02T06:44:46;16.67;;;6.65;;
54171;SDS011;40076;52.354;4.970;2023-07-02T06:47:11;20.38;;;6.85;;
54171;SDS011;40076;52.354;4.970;2023-07-02T06:49:37;16.30;;;5.38;;
54171;SDS011;40076;52.354;4.970;2023-07-02T06:52:02;14.35;;;5.38;;
54171;SDS011;40076;52.354;4.970;2023-07-02T06:54:28;20.88;;;5.97;;
54171;SDS011;40076;52.354;4.970;2023-07-02T06:56:53;16.95;;;6.22;;
54171;SDS011;40076;52.354;4.970;2023-07-02T06:59:22;19.38;;;5.97;;
54171;SDS011;40076;52.354;4.970;2023-07-02T07:01:48;17.20;;;5.43;;
54171;SDS011;40076;52.354;4.970;2023-07-02T07:04:14;15.57;;;5.45;;
54171;SDS011;40076;52.354;4.970;2023-07-02T07:06:41;18.42;;;5.50;;
54171;SDS011;40076;52.354;4.970;2023-07-02T07:09:07;19.50;;;5.63;;
54171;SDS011;40076;52.354;4.970;2023-07-02T07:11:33;15.77;;;5.22;;
54171;SDS011;40076;52.354;4.970;2023-07-02T07:13:58;16.70;;;6.10;;
54171;SDS011;40076;52.354;4.970;2023-07-02T07:16:26;13.73;;;5.20;;
54171;SDS011;40076;52.354;4.970;2023-07-02T07:18:51;17.17;;;6.15;;
54171;SDS011;40076;52.354;4.970;2023-07-02T07:21:17;17.00;;;5.45;;
54171;SDS011;40076;52.354;4.970;2023-07-02T07:23:52;15.07;;;6.30;;
54171;SDS011;40076;52.354;4.970;2023-07-02T07:26:18;15.40;;;5.72;;
54171;SDS011;40076;52.354;4.970;2023-07-02T07:28:43;20.73;;;6.47;;
54171;SDS011;40076;52.354;4.970;2023-07-02T07:31:11;17.13;;;6.15;;
54171;SDS011;40076;52.354;4.970;2023-07-02T07:33:37;17.45;;;6.18;;
54171;SDS011;40076;52.354;4.970;2023-07-02T07:36:02;19.05;;;6.75;;
54171;SDS011;40076;52.354;4.970;2023-07-02T07:38:28;18.33;;;6.22;;
54171;SDS011;40076;52.354;4.970;2023-07-02T07:40:53;19.23;;;7.18;;
54171;SDS011;40076;52.354;4.970;2023-07-02T07:43:30;15.52;;;6.35;;
54171;SDS011;40076;52.354;4.970;2023-07-02T07:45:56;20.00;;;6.22;;
54171;SDS011;40076;52.354;4.970;2023-07-02T07:48:21;16.42;;;6.65;;
54171;SDS011;40076;52.354;4.970;2023-07-02T07:50:47;16.45;;;6.35;;
54171;SDS011;40076;52.354;4.970;2023-07-02T07:53:17;23.40;;;6.25;;
54171;SDS011;40076;52.354;4.970;2023-07-02T07:55:42;18.23;;;6.82;;
54171;SDS011;40076;52.354;4.970;2023-07-02T07:58:08;13.55;;;5.82;;
54171;SDS011;40076;52.354;4.970;2023-07-02T08:00:33;19.42;;;6.00;;
54171;SDS011;40076;52.354;4.970;2023-07-02T08:02:59;21.02;;;6.10;;
54171;SDS011;40076;52.354;4.970;2023-07-02T08:05:26;20.50;;;6.45;;
54171;SDS011;40076;52.354;4.970;2023-07-02T08:07:51;15.73;;;5.80;;
54171;SDS011;40076;52.354;4.970;2023-07-02T08:10:18;16.60;;;6.90;;
54171;SDS011;40076;52.354;4.970;2023-07-02T08:12:44;18.50;;;5.68;;
54171;SDS011;40076;52.354;4.970;2023-07-02T08:15:11;17.05;;;5.82;;
54171;SDS011;40076;52.354;4.970;2023-07-02T08:17:36;19.02;;;6.43;;
54171;SDS011;40076;52.354;4.970;2023-07-02T08:20:02;19.02;;;5.05;;
54171;SDS011;40076;52.354;4.970;2023-07-02T08:22:37;16.60;;;5.25;;
54171;SDS011;40076;52.354;4.970;2023-07-02T08:25:08;16.40;;;5.43;;
54171;SDS011;40076;52.354;4.970;2023-07-02T08:27:43;17.20;;;5.80;;
54171;SDS011;40076;52.354;4.970;2023-07-02T08:30:08;17.20;;;5.68;;
54171;SDS011;40076;52.354;4.970;2023-07-02T08:32:34;21.42;;;5.32;;
54171;SDS011;40076;52.354;4.970;2023-07-02T08:35:00;18.20;;;4.88;;
54171;SDS011;40076;52.354;4.970;2023-07-02T08:37:30;17.00;;;5.85;;
54171;SDS011;40076;52.354;4.970;2023-07-02T08:39:56;13.05;;;4.80;;
54171;SDS011;40076;52.354;4.970;2023-07-02T08:42:24;14.77;;;5.00;;
54171;SDS011;40076;52.354;4.970;2023-07-02T08:44:54;22.35;;;6.32;;
54171;SDS011;40076;52.354;4.970;2023-07-02T08:47:31;14.70;;;4.70;;
54171;SDS011;40076;52.354;4.970;2023-07-02T08:49:56;21.08;;;5.75;;
54171;SDS011;40076;52.354;4.970;2023-07-02T08:52:22;20.88;;;6.00;;
54171;SDS011;40076;52.354;4.970;2023-07-02T08:54:47;13.98;;;5.00;;
54171;SDS011;40076;52.354;4.970;2023-07-02T08:57:13;12.73;;;4.47;;
54171;SDS011;40076;52.354;4.970;2023-07-02T08:59:46;16.67;;;5.53;;
54171;SDS011;40076;52.354;4.970;2023-07-02T09:02:14;15.68;;;5.18;;
54171;SDS011;40076;52.354;4.970;2023-07-02T09:04:39;16.15;;;4.82;;
54171;SDS011;40076;52.354;4.970;2023-07-02T09:07:06;17.88;;;5.85;;
54171;SDS011;40076;52.354;4.970;2023-07-02T09:09:34;12.60;;;4.82;;
54171;SDS011;40076;52.354;4.970;2023-07-02T09:15:00;15.05;;;5.38;;
54171;SDS011;40076;52.354;4.970;2023-07-02T09:17:37;17.10;;;5.63;;
54171;SDS011;40076;52.354;4.970;2023-07-02T09:20:06;18.88;;;5.53;;
54171;SDS011;40076;52.354;4.970;2023-07-02T09:22:33;14.38;;;5.28;;
54171;SDS011;40076;52.354;4.970;2023-07-02T09:25:01;14.88;;;4.95;;
54171;SDS011;40076;52.354;4.970;2023-07-02T09:27:40;13.15;;;4.40;;
54171;SDS011;40076;52.354;4.970;2023-07-02T09:30:07;14.38;;;4.55;;
54171;SDS011;40076;52.354;4.970;2023-07-02T09:32:38;11.57;;;4.13;;
54171;SDS011;40076;52.354;4.970;2023-07-02T09:35:04;15.20;;;4.38;;
54171;SDS011;40076;52.354;4.970;2023-07-02T09:37:30;12.48;;;4.38;;
54171;SDS011;40076;52.354;4.970;2023-07-02T09:39:56;14.40;;;4.10;;
54171;SDS011;40076;52.354;4.970;2023-07-02T09:42:22;13.80;;;4.30;;
54171;SDS011;40076;52.354;4.970;2023-07-02T09:45:03;11.27;;;3.40;;
54171;SDS011;40076;52.354;4.970;2023-07-02T09:47:37;15.07;;;4.40;;
54171;SDS011;40076;52.354;4.970;2023-07-02T09:50:10;13.95;;;4.38;;
54171;SDS011;40076;52.354;4.970;2023-07-02T09:52:36;13.60;;;3.85;;
54171;SDS011;40076;52.354;4.970;2023-07-02T09:55:11;9.13;;;3.63;;
54171;SDS011;40076;52.354;4.970;2023-07-02T09:57:40;10.32;;;4.10;;
54171;SDS011;40076;52.354;4.970;2023-07-02T10:00:14;16.08;;;4.78;;
54171;SDS011;40076;52.354;4.970;2023-07-02T10:02:52;13.25;;;3.50;;
54171;SDS011;40076;52.354;4.970;2023-07-02T10:08:17;13.85;;;3.90;;
54171;SDS011;40076;52.354;4.970;2023-07-02T10:10:45;9.40;;;3.20;;
54171;SDS011;40076;52.354;4.970;2023-07-02T10:13:11;12.73;;;3.90;;
54171;SDS011;40076;52.354;4.970;2023-07-02T10:15:39;9.75;;;4.03;;
54171;SDS011;40076;52.354;4.970;2023-07-02T10:18:05;10.75;;;3.40;;
54171;SDS011;40076;52.354;4.970;2023-07-02T10:20:31;10.23;;;3.60;;
54171;SDS011;40076;52.354;4.970;2023-07-02T10:22:59;13.35;;;4.07;;
54171;SDS011;40076;52.354;4.970;2023-07-02T10:25:30;12.77;;;4.00;;
54171;SDS011;40076;52.354;4.970;2023-07-02T10:28:00;9.38;;;3.72;;
54171;SDS011;40076;52.354;4.970;2023-07-02T10:30:30;10.80;;;3.90;;
54171;SDS011;40076;52.354;4.970;2023-07-02T10:33:06;10.25;;;4.43;;
54171;SDS011;40076;52.354;4.970;2023-07-02T10:35:36;10.80;;;4.07;;
54171;SDS011;40076;52.354;4.970;2023-07-02T10:38:01;11.45;;;4.38;;
54171;SDS011;40076;52.354;4.970;2023-07-02T10:40:27;14.43;;;4.63;;
54171;SDS011;40076;52.354;4.970;2023-07-02T10:42:58;9.82;;;4.50;;
54171;SDS011;40076;52.354;4.970;2023-07-02T10:45:33;13.57;;;4.40;;
54171;SDS011;40076;52.354;4.970;2023-07-02T10:48:02;12.93;;;5.32;;
54171;SDS011;40076;52.354;4.970;2023-07-02T10:50:29;9.07;;;3.85;;
54171;SDS011;40076;52.354;4.970;2023-07-02T10:52:56;12.35;;;4.80;;
54171;SDS011;40076;52.354;4.970;2023-07-02T10:55:22;11.93;;;5.00;;
54171;SDS011;40076;52.354;4.970;2023-07-02T10:57:49;12.15;;;4.85;;
54171;SDS011;40076;52.354;4.970;2023-07-02T11:00:18;12.82;;;4.78;;
54171;SDS011;40076;52.354;4.970;2023-07-02T11:02:46;14.18;;;5.05;;
54171;SDS011;40076;52.354;4.970;2023-07-02T11:05:15;13.32;;;5.10;;
54171;SDS011;40076;52.354;4.970;2023-07-02T11:07:46;12.27;;;4.63;;
54171;SDS011;40076;52.354;4.970;2023-07-02T11:10:21;13.52;;;4.75;;
54171;SDS011;40076;52.354;4.970;2023-07-02T11:12:47;11.68;;;4.72;;
54171;SDS011;40076;52.354;4.970;2023-07-02T11:15:16;15.27;;;4.90;;
54171;SDS011;40076;52.354;4.970;2023-07-02T11:17:45;9.07;;;4.00;;
54171;SDS011;40076;52.354;4.970;2023-07-02T11:20:13;11.90;;;4.72;;
54171;SDS011;40076;52.354;4.970;2023-07-02T11:22:40;10.70;;;4.50;;
54171;SDS011;40076;52.354;4.970;2023-07-02T11:25:12;10.10;;;4.32;;
54171;SDS011;40076;52.354;4.970;2023-07-02T11:27:41;11.43;;;4.70;;
54171;SDS011;40076;52.354;4.970;2023-07-02T11:30:08;10.48;;;4.50;;
54171;SDS011;40076;52.354;4.970;2023-07-02T11:32:55;14.60;;;4.80;;
54171;SDS011;40076;52.354;4.970;2023-07-02T11:35:20;9.25;;;4.18;;
54171;SDS011;40076;52.354;4.970;2023-07-02T11:37:46;12.48;;;4.90;;
54171;SDS011;40076;52.354;4.970;2023-07-02T11:40:14;12.80;;;4.50;;
54171;SDS011;40076;52.354;4.970;2023-07-02T11:42:44;10.73;;;4.32;;
54171;SDS011;40076;52.354;4.970;2023-07-02T11:45:10;13.93;;;4.25;;
54171;SDS011;40076;52.354;4.970;2023-07-02T11:47:37;9.35;;;4.13;;
54171;SDS011;40076;52.354;4.970;2023-07-02T11:50:03;10.02;;;4.57;;
54171;SDS011;40076;52.354;4.970;2023-07-02T11:52:30;9.65;;;3.88;;
54171;SDS011;40076;52.354;4.970;2023-07-02T11:54:56;8.32;;;3.80;;
54171;SDS011;40076;52.354;4.970;2023-07-02T11:57:22;10.25;;;4.35;;
54171;SDS011;40076;52.354;4.970;2023-07-02T11:59:47;10.50;;;4.28;;
54171;SDS011;40076;52.354;4.970;2023-07-02T12:02:19;14.07;;;3.92;;
54171;SDS011;40076;52.354;4.970;2023-07-02T12:04:44;9.07;;;4.53;;
54171;SDS011;40076;52.354;4.970;2023-07-02T12:07:10;9.55;;;3.78;;
54171;SDS011;40076;52.354;4.970;2023-07-02T12:09:35;7.15;;;3.70;;
54171;SDS011;40076;52.354;4.970;2023-07-02T12:12:06;10.82;;;4.47;;
54171;SDS011;40076;52.354;4.970;2023-07-02T12:14:32;10.35;;;3.83;;
54171;SDS011;40076;52.354;4.970;2023-07-02T12:17:01;9.40;;;3.97;;
54171;SDS011;40076;52.354;4.970;2023-07-02T12:19:29;11.45;;;4.07;;
54171;SDS011;40076;52.354;4.970;2023-07-02T12:21:57;9.07;;;3.55;;
54171;SDS011;40076;52.354;4.970;2023-07-02T12:24:25;7.78;;;3.58;;
54171;SDS011;40076;52.354;4.970;2023-07-02T12:26:50;12.35;;;3.90;;
54171;SDS011;40076;52.354;4.970;2023-07-02T12:29:16;10.43;;;3.92;;
54171;SDS011;40076;52.354;4.970;2023-07-02T12:31:41;9.10;;;4.30;;
54171;SDS011;40076;52.354;4.970;2023-07-02T12:34:07;10.15;;;4.40;;
54171;SDS011;40076;52.354;4.970;2023-07-02T12:36:40;11.60;;;4.88;;
54171;SDS011;40076;52.354;4.970;2023-07-02T12:39:06;8.30;;;4.03;;
54171;SDS011;40076;52.354;4.970;2023-07-02T12:41:32;9.45;;;4.13;;
54171;SDS011;40076;52.354;4.970;2023-07-02T12:43:58;10.05;;;3.72;;
54171;SDS011;40076;52.354;4.970;2023-07-02T12:46:24;11.75;;;4.47;;
54171;SDS011;40076;52.354;4.970;2023-07-02T12:48:54;8.57;;;4.13;;
54171;SDS011;40076;52.354;4.970;2023-07-02T12:51:20;8.80;;;4.70;;
54171;SDS011;40076;52.354;4.970;2023-07-02T12:53:45;11.48;;;3.97;;
54171;SDS011;40076;52.354;4.970;2023-07-02T12:56:11;13.18;;;4.35;;
54171;SDS011;40076;52.354;4.970;2023-07-02T12:58:39;11.50;;;4.50;;
54171;SDS011;40076;52.354;4.970;2023-07-02T13:01:06;12.55;;;4.60;;
54171;SDS011;40076;52.354;4.970;2023-07-02T13:03:32;17.58;;;4.50;;
54171;SDS011;40076;52.354;4.970;2023-07-02T13:05:58;13.30;;;4.63;;
54171;SDS011;40076;52.354;4.970;2023-07-02T13:08:26;14.85;;;4.70;;
54171;SDS011;40076;52.354;4.970;2023-07-02T13:10:53;12.80;;;5.43;;
54171;SDS011;40076;52.354;4.970;2023-07-02T13:13:18;11.90;;;4.75;;
54171;SDS011;40076;52.354;4.970;2023-07-02T13:15:54;10.80;;;4.65;;
54171;SDS011;40076;52.354;4.970;2023-07-02T13:18:25;12.38;;;4.30;;
54171;SDS011;40076;52.354;4.970;2023-07-02T13:20:51;11.35;;;4.80;;
54171;SDS011;40076;52.354;4.970;2023-07-02T13:23:18;9.82;;;4.40;;
54171;SDS011;40076;52.354;4.970;2023-07-02T13:25:46;9.55;;;5.07;;
54171;SDS011;40076;52.354;4.970;2023-07-02T13:28:12;10.93;;;4.63;;
54171;SDS011;40076;52.354;4.970;2023-07-02T13:30:37;10.88;;;4.10;;
54171;SDS011;40076;52.354;4.970;2023-07-02T13:33:06;13.93;;;5.55;;
54171;SDS011;40076;52.354;4.970;2023-07-02T13:35:31;13.18;;;4.30;;
54171;SDS011;40076;52.354;4.970;2023-07-02T13:37:57;11.63;;;4.72;;
54171;SDS011;40076;52.354;4.970;2023-07-02T13:40:24;12.15;;;5.10;;
54171;SDS011;40076;52.354;4.970;2023-07-02T13:43:08;13.38;;;5.18;;
54171;SDS011;40076;52.354;4.970;2023-07-02T13:45:39;11.90;;;4.63;;
54171;SDS011;40076;52.354;4.970;2023-07-02T13:48:04;10.30;;;4.35;;
54171;SDS011;40076;52.354;4.970;2023-07-02T13:50:30;13.55;;;4.47;;
54171;SDS011;40076;52.354;4.970;2023-07-02T13:53:20;13.13;;;4.72;;
54171;SDS011;40076;52.354;4.970;2023-07-02T13:55:46;12.95;;;5.63;;
54171;SDS011;40076;52.354;4.970;2023-07-02T13:59:12;9.80;;;4.55;;
54171;SDS011;40076;52.354;4.970;2023-07-02T14:01:31;12.02;;;4.55;;
54171;SDS011;40076;52.354;4.970;2023-07-02T14:04:08;10.23;;;3.88;;
54171;SDS011;40076;52.354;4.970;2023-07-02T14:06:46;10.13;;;4.10;;
54171;SDS011;40076;52.354;4.970;2023-07-02T14:09:12;9.63;;;4.15;;
54171;SDS011;40076;52.354;4.970;2023-07-02T14:11:40;8.38;;;4.18;;
54171;SDS011;40076;52.354;4.970;2023-07-02T14:14:08;10.20;;;4.75;;
54171;SDS011;40076;52.354;4.970;2023-07-02T14:16:36;10.90;;;4.82;;
54171;SDS011;40076;52.354;4.970;2023-07-02T14:19:13;9.75;;;4.60;;
54171;SDS011;40076;52.354;4.970;2023-07-02T14:21:40;12.95;;;4.40;;
54171;SDS011;40076;52.354;4.970;2023-07-02T14:24:05;8.20;;;3.97;;
54171;SDS011;40076;52.354;4.970;2023-07-02T14:26:37;8.60;;;3.92;;
54171;SDS011;40076;52.354;4.970;2023-07-02T14:31:55;10.15;;;4.00;;
54171;SDS011;40076;52.354;4.970;2023-07-02T14:34:20;15.75;;;4.43;;
54171;SDS011;40076;52.354;4.970;2023-07-02T14:36:46;11.02;;;4.35;;
54171;SDS011;40076;52.354;4.970;2023-07-02T14:39:30;11.70;;;4.65;;
54171;SDS011;40076;52.354;4.970;2023-07-02T14:41:56;10.02;;;3.60;;
54171;SDS011;40076;52.354;4.970;2023-07-02T14:44:21;7.05;;;3.67;;
54171;SDS011;40076;52.354;4.970;2023-07-02T14:46:50;10.02;;;4.32;;
54171;SDS011;40076;52.354;4.970;2023-07-02T14:49:20;8.65;;;3.45;;